sensor_id;sensor_type;location;lat;lon;timestamp;temperature;humidity
22838;DHT22;11585;51.450;-0.240;2022-08-27T00:00:15;21.00;99.90
22838;DHT22;11585;51.450;-0.240;2022-08-27T00:02:42;21.00;99.90
22838;DHT22;11585;51.450;-0.240;2022-08-27T00:05:10;21.00;99.90
22838;DHT22;11585;51.450;-0.240;2022-08-27T00:07:36;21.00;99.90
22838;DHT22;11585;51.450;-0.240;2022-08-27T00:10:03;21.00;99.90
22838;DHT22;11585;51.450;-0.240;2022-08-27T00:12:29;20.90;99.90
22838;DHT22;11585;51.450;-0.240;2022-08-27T00:14:55;20.90;99.90
22838;DHT22;11585;51.450;-0.240;2022-08-27T00:17:21;20.90;99.90
22838;DHT22;11585;51.450;-0.240;2022-08-27T00:19:46;20.90;99.90
22838;DHT22;11585;51.450;-0.240;2022-08-27T00:22:12;20.90;99.90
22838;DHT22;11585;51.450;-0.240;2022-08-27T00:24:39;20.80;99.90
22838;DHT22;11585;51.450;-0.240;2022-08-27T00:27:05;20.90;99.90
22838;DHT22;11585;51.450;-0.240;2022-08-27T00:29:31;20.80;99.90
22838;DHT22;11585;51.450;-0.240;2022-08-27T00:31:56;20.80;99.90
22838;DHT22;11585;51.450;-0.240;2022-08-27T00:34:24;20.80;99.90
22838;DHT22;11585;51.450;-0.240;2022-08-27T00:36:50;20.80;99.90
22838;DHT22;11585;51.450;-0.240;2022-08-27T00:39:16;20.80;99.90
22838;DHT22;11585;51.450;-0.240;2022-08-27T00:41:41;20.70;99.90
22838;DHT22;11585;51.450;-0.240;2022-08-27T00:44:10;20.80;99.90
22838;DHT22;11585;51.450;-0.240;2022-08-27T00:46:47;20.70;99.90
22838;DHT22;11585;51.450;-0.240;2022-08-27T00:49:36;20.70;99.90
22838;DHT22;11585;51.450;-0.240;2022-08-27T00:52:25;20.70;99.90
22838;DHT22;11585;51.450;-0.240;2022-08-27T00:54:56;20.70;99.90
22838;DHT22;11585;51.450;-0.240;2022-08-27T00:57:22;20.60;99.90
22838;DHT22;11585;51.450;-0.240;2022-08-27T00:59:49;20.60;99.90
22838;DHT22;11585;51.450;-0.240;2022-08-27T01:02:14;20.60;99.90
22838;DHT22;11585;51.450;-0.240;2022-08-27T01:05:02;20.60;99.90
22838;DHT22;11585;51.450;-0.240;2022-08-27T01:07:30;20.60;99.90
22838;DHT22;11585;51.450;-0.240;2022-08-27T01:09:58;20.50;99.90
22838;DHT22;11585;51.450;-0.240;2022-08-27T01:12:25;20.50;99.90
22838;DHT22;11585;51.450;-0.240;2022-08-27T01:17:56;20.50;99.90
22838;DHT22;11585;51.450;-0.240;2022-08-27T01:20:31;20.40;99.90
22838;DHT22;11585;51.450;-0.240;2022-08-27T01:25:44;20.40;99.90
22838;DHT22;11585;51.450;-0.240;2022-08-27T01:28:11;20.40;99.90
22838;DHT22;11585;51.450;-0.240;2022-08-27T01:30:38;20.40;99.90
22838;DHT22;11585;51.450;-0.240;2022-08-27T01:33:13;20.40;99.90
22838;DHT22;11585;51.450;-0.240;2022-08-27T01:35:44;20.40;99.90
22838;DHT22;11585;51.450;-0.240;2022-08-27T01:38:10;20.40;99.90
22838;DHT22;11585;51.450;-0.240;2022-08-27T01:40:36;20.30;99.90
22838;DHT22;11585;51.450;-0.240;2022-08-27T01:43:02;20.30;99.90
22838;DHT22;11585;51.450;-0.240;2022-08-27T01:48:20;20.30;99.90
22838;DHT22;11585;51.450;-0.240;2022-08-27T01:50:46;20.30;99.90
22838;DHT22;11585;51.450;-0.240;2022-08-27T01:53:23;20.30;99.90
22838;DHT22;11585;51.450;-0.240;2022-08-27T01:56:10;20.30;99.90
22838;DHT22;11585;51.450;-0.240;2022-08-27T01:58:37;20.30;99.90
22838;DHT22;11585;51.450;-0.240;2022-08-27T02:01:06;20.20;99.90
22838;DHT22;11585;51.450;-0.240;2022-08-27T02:03:36;20.20;99.90
22838;DHT22;11585;51.450;-0.240;2022-08-27T02:06:05;20.20;99.90
22838;DHT22;11585;51.450;-0.240;2022-08-27T02:08:31;20.20;99.90
22838;DHT22;11585;51.450;-0.240;2022-08-27T02:10:58;20.20;99.90
22838;DHT22;11585;51.450;-0.240;2022-08-27T02:13:24;20.10;99.90
22838;DHT22;11585;51.450;-0.240;2022-08-27T02:15:52;20.10;99.90
22838;DHT22;11585;51.450;-0.240;2022-08-27T02:18:18;20.10;99.90
22838;DHT22;11585;51.450;-0.240;2022-08-27T02:20:45;20.10;99.90
22838;DHT22;11585;51.450;-0.240;2022-08-27T02:23:12;20.10;99.90
22838;DHT22;11585;51.450;-0.240;2022-08-27T02:25:38;20.10;99.90
22838;DHT22;11585;51.450;-0.240;2022-08-27T02:28:07;20.00;99.90
22838;DHT22;11585;51.450;-0.240;2022-08-27T02:30:34;20.10;99.90
22838;DHT22;11585;51.450;-0.240;2022-08-27T02:33:01;20.00;99.90
22838;DHT22;11585;51.450;-0.240;2022-08-27T02:35:30;20.10;99.90
22838;DHT22;11585;51.450;-0.240;2022-08-27T02:37:56;20.00;99.90
22838;DHT22;11585;51.450;-0.240;2022-08-27T02:40:23;19.90;99.90
22838;DHT22;11585;51.450;-0.240;2022-08-27T02:42:49;19.90;99.90
22838;DHT22;11585;51.450;-0.240;2022-08-27T02:45:17;19.90;99.90
22838;DHT22;11585;51.450;-0.240;2022-08-27T02:47:43;19.90;99.90
22838;DHT22;11585;51.450;-0.240;2022-08-27T02:50:09;19.90;99.90
22838;DHT22;11585;51.450;-0.240;2022-08-27T02:52:35;19.80;99.90
22838;DHT22;11585;51.450;-0.240;2022-08-27T02:55:21;19.80;99.90
22838;DHT22;11585;51.450;-0.240;2022-08-27T02:57:47;19.80;99.90
22838;DHT22;11585;51.450;-0.240;2022-08-27T03:00:16;19.80;99.90
22838;DHT22;11585;51.450;-0.240;2022-08-27T03:02:43;19.80;99.90
22838;DHT22;11585;51.450;-0.240;2022-08-27T03:05:13;19.80;99.90
22838;DHT22;11585;51.450;-0.240;2022-08-27T03:07:39;19.80;99.90
22838;DHT22;11585;51.450;-0.240;2022-08-27T03:10:06;19.80;99.90
22838;DHT22;11585;51.450;-0.240;2022-08-27T03:12:32;19.80;99.90
22838;DHT22;11585;51.450;-0.240;2022-08-27T03:18:26;19.80;99.90
22838;DHT22;11585;51.450;-0.240;2022-08-27T03:20:53;19.70;99.90
22838;DHT22;11585;51.450;-0.240;2022-08-27T03:23:22;19.70;99.90
22838;DHT22;11585;51.450;-0.240;2022-08-27T03:26:10;19.60;99.90
22838;DHT22;11585;51.450;-0.240;2022-08-27T03:28:36;19.70;99.90
22838;DHT22;11585;51.450;-0.240;2022-08-27T03:31:04;19.60;99.90
22838;DHT22;11585;51.450;-0.240;2022-08-27T03:33:36;19.60;99.90
22838;DHT22;11585;51.450;-0.240;2022-08-27T03:36:03;19.60;99.90
22838;DHT22;11585;51.450;-0.240;2022-08-27T03:38:28;19.60;99.90
22838;DHT22;11585;51.450;-0.240;2022-08-27T03:40:54;19.60;99.90
22838;DHT22;11585;51.450;-0.240;2022-08-27T03:43:21;19.60;99.90
22838;DHT22;11585;51.450;-0.240;2022-08-27T03:45:50;19.60;99.90
22838;DHT22;11585;51.450;-0.240;2022-08-27T03:48:16;19.60;99.90
22838;DHT22;11585;51.450;-0.240;2022-08-27T03:50:44;19.60;99.90
22838;DHT22;11585;51.450;-0.240;2022-08-27T03:53:12;19.60;99.90
22838;DHT22;11585;51.450;-0.240;2022-08-27T03:55:38;19.50;99.90
22838;DHT22;11585;51.450;-0.240;2022-08-27T03:58:05;19.60;99.90
22838;DHT22;11585;51.450;-0.240;2022-08-27T04:00:30;19.50;99.90
22838;DHT22;11585;51.450;-0.240;2022-08-27T04:02:56;19.50;99.90
22838;DHT22;11585;51.450;-0.240;2022-08-27T04:08:44;19.50;99.90
22838;DHT22;11585;51.450;-0.240;2022-08-27T04:11:09;19.50;99.90
22838;DHT22;11585;51.450;-0.240;2022-08-27T04:13:37;19.50;99.90
22838;DHT22;11585;51.450;-0.240;2022-08-27T04:16:04;19.50;99.90
22838;DHT22;11585;51.450;-0.240;2022-08-27T04:18:29;19.50;99.90
22838;DHT22;11585;51.450;-0.240;2022-08-27T04:20:55;19.40;99.90
22838;DHT22;11585;51.450;-0.240;2022-08-27T04:23:22;19.40;99.90
22838;DHT22;11585;51.450;-0.240;2022-08-27T04:25:48;19.40;99.90
22838;DHT22;11585;51.450;-0.240;2022-08-27T04:28:15;19.40;99.90
22838;DHT22;11585;51.450;-0.240;2022-08-27T04:30:42;19.40;99.90
22838;DHT22;11585;51.450;-0.240;2022-08-27T04:33:09;19.40;99.90
22838;DHT22;11585;51.450;-0.240;2022-08-27T04:35:39;19.40;99.90
22838;DHT22;11585;51.450;-0.240;2022-08-27T04:38:05;19.40;99.90
22838;DHT22;11585;51.450;-0.240;2022-08-27T04:40:31;19.40;99.90
22838;DHT22;11585;51.450;-0.240;2022-08-27T04:43:15;19.40;99.90
22838;DHT22;11585;51.450;-0.240;2022-08-27T04:45:44;19.30;99.90
22838;DHT22;11585;51.450;-0.240;2022-08-27T04:48:11;19.30;99.90
22838;DHT22;11585;51.450;-0.240;2022-08-27T04:50:42;19.30;99.90
22838;DHT22;11585;51.450;-0.240;2022-08-27T04:53:13;19.30;99.90
22838;DHT22;11585;51.450;-0.240;2022-08-27T04:55:58;19.30;99.90
22838;DHT22;11585;51.450;-0.240;2022-08-27T04:58:24;19.30;99.90
22838;DHT22;11585;51.450;-0.240;2022-08-27T05:00:52;19.30;99.90
22838;DHT22;11585;51.450;-0.240;2022-08-27T05:03:21;19.30;99.90
22838;DHT22;11585;51.450;-0.240;2022-08-27T05:06:08;19.30;99.90
22838;DHT22;11585;51.450;-0.240;2022-08-27T05:08:34;19.30;99.90
22838;DHT22;11585;51.450;-0.240;2022-08-27T05:10:59;19.30;99.90
22838;DHT22;11585;51.450;-0.240;2022-08-27T05:13:26;19.20;99.90
22838;DHT22;11585;51.450;-0.240;2022-08-27T05:16:02;19.30;99.90
22838;DHT22;11585;51.450;-0.240;2022-08-27T05:18:28;19.30;99.90
22838;DHT22;11585;51.450;-0.240;2022-08-27T05:20:54;19.30;99.90
22838;DHT22;11585;51.450;-0.240;2022-08-27T05:23:21;19.20;99.90
22838;DHT22;11585;51.450;-0.240;2022-08-27T05:26:08;19.20;99.90
22838;DHT22;11585;51.450;-0.240;2022-08-27T05:28:33;19.20;99.90
22838;DHT22;11585;51.450;-0.240;2022-08-27T05:31:05;19.30;99.90
22838;DHT22;11585;51.450;-0.240;2022-08-27T05:33:33;19.30;99.90
22838;DHT22;11585;51.450;-0.240;2022-08-27T05:35:59;19.20;99.90
22838;DHT22;11585;51.450;-0.240;2022-08-27T05:38:27;19.20;99.90
22838;DHT22;11585;51.450;-0.240;2022-08-27T05:41:08;19.20;99.90
22838;DHT22;11585;51.450;-0.240;2022-08-27T05:43:39;19.20;99.90
22838;DHT22;11585;51.450;-0.240;2022-08-27T05:46:09;19.20;99.90
22838;DHT22;11585;51.450;-0.240;2022-08-27T05:48:36;19.20;99.90
22838;DHT22;11585;51.450;-0.240;2022-08-27T05:53:37;19.20;99.90
22838;DHT22;11585;51.450;-0.240;2022-08-27T05:56:03;19.20;99.90
22838;DHT22;11585;51.450;-0.240;2022-08-27T05:58:29;19.20;99.90
22838;DHT22;11585;51.450;-0.240;2022-08-27T06:01:13;19.20;99.90
22838;DHT22;11585;51.450;-0.240;2022-08-27T06:03:42;19.20;99.90
22838;DHT22;11585;51.450;-0.240;2022-08-27T06:06:10;19.20;99.90
22838;DHT22;11585;51.450;-0.240;2022-08-27T06:08:37;19.20;99.90
22838;DHT22;11585;51.450;-0.240;2022-08-27T06:11:04;19.20;99.90
22838;DHT22;11585;51.450;-0.240;2022-08-27T06:13:31;19.20;99.90
22838;DHT22;11585;51.450;-0.240;2022-08-27T06:16:09;19.20;99.90
22838;DHT22;11585;51.450;-0.240;2022-08-27T06:18:39;19.20;99.90
22838;DHT22;11585;51.450;-0.240;2022-08-27T06:21:05;19.20;99.90
22838;DHT22;11585;51.450;-0.240;2022-08-27T06:23:34;19.20;99.90
22838;DHT22;11585;51.450;-0.240;2022-08-27T06:26:00;19.20;99.90
22838;DHT22;11585;51.450;-0.240;2022-08-27T06:28:27;19.20;99.90
22838;DHT22;11585;51.450;-0.240;2022-08-27T06:31:08;19.20;99.90
22838;DHT22;11585;51.450;-0.240;2022-08-27T06:33:38;19.20;99.90
22838;DHT22;11585;51.450;-0.240;2022-08-27T06:36:08;19.20;99.90
22838;DHT22;11585;51.450;-0.240;2022-08-27T06:38:35;19.20;99.90
22838;DHT22;11585;51.450;-0.240;2022-08-27T06:41:05;19.20;99.90
22838;DHT22;11585;51.450;-0.240;2022-08-27T06:43:33;19.20;99.90
22838;DHT22;11585;51.450;-0.240;2022-08-27T06:46:02;19.20;99.90
22838;DHT22;11585;51.450;-0.240;2022-08-27T06:48:28;19.20;99.90
22838;DHT22;11585;51.450;-0.240;2022-08-27T06:50:53;19.20;99.90
22838;DHT22;11585;51.450;-0.240;2022-08-27T06:53:19;19.20;99.90
22838;DHT22;11585;51.450;-0.240;2022-08-27T06:56:05;19.20;99.90
22838;DHT22;11585;51.450;-0.240;2022-08-27T06:58:31;19.20;99.90
22838;DHT22;11585;51.450;-0.240;2022-08-27T07:00:58;19.20;99.90
22838;DHT22;11585;51.450;-0.240;2022-08-27T07:03:24;19.20;99.90
22838;DHT22;11585;51.450;-0.240;2022-08-27T07:09:12;19.20;99.90
22838;DHT22;11585;51.450;-0.240;2022-08-27T07:11:38;19.20;99.90
22838;DHT22;11585;51.450;-0.240;2022-08-27T07:17:09;19.20;99.90
22838;DHT22;11585;51.450;-0.240;2022-08-27T07:19:36;19.20;99.90
22838;DHT22;11585;51.450;-0.240;2022-08-27T07:22:03;19.20;99.90
22838;DHT22;11585;51.450;-0.240;2022-08-27T07:24:30;19.20;99.90
22838;DHT22;11585;51.450;-0.240;2022-08-27T07:26:57;19.20;99.90
22838;DHT22;11585;51.450;-0.240;2022-08-27T07:29:23;19.30;99.90
22838;DHT22;11585;51.450;-0.240;2022-08-27T07:31:48;19.30;99.90
22838;DHT22;11585;51.450;-0.240;2022-08-27T07:34:16;19.30;99.90
22838;DHT22;11585;51.450;-0.240;2022-08-27T07:36:42;19.30;99.90
22838;DHT22;11585;51.450;-0.240;2022-08-27T07:39:08;19.40;99.90
22838;DHT22;11585;51.450;-0.240;2022-08-27T07:41:34;19.30;99.90
22838;DHT22;11585;51.450;-0.240;2022-08-27T07:44:27;19.40;99.90
22838;DHT22;11585;51.450;-0.240;2022-08-27T07:47:11;19.40;99.90
22838;DHT22;11585;51.450;-0.240;2022-08-27T07:49:37;19.40;99.90
22838;DHT22;11585;51.450;-0.240;2022-08-27T07:52:03;19.40;99.90
22838;DHT22;11585;51.450;-0.240;2022-08-27T07:54:30;19.50;99.90
22838;DHT22;11585;51.450;-0.240;2022-08-27T07:56:56;19.50;99.90
22838;DHT22;11585;51.450;-0.240;2022-08-27T07:59:23;19.50;99.90
22838;DHT22;11585;51.450;-0.240;2022-08-27T08:01:48;19.50;99.90
22838;DHT22;11585;51.450;-0.240;2022-08-27T08:07:18;19.60;99.90
22838;DHT22;11585;51.450;-0.240;2022-08-27T08:09:43;19.60;99.90
22838;DHT22;11585;51.450;-0.240;2022-08-27T08:12:09;19.70;99.90
22838;DHT22;11585;51.450;-0.240;2022-08-27T08:14:38;19.70;99.90
22838;DHT22;11585;51.450;-0.240;2022-08-27T08:17:04;19.70;99.90
22838;DHT22;11585;51.450;-0.240;2022-08-27T08:19:32;19.80;99.90
22838;DHT22;11585;51.450;-0.240;2022-08-27T08:22:03;19.70;99.90
22838;DHT22;11585;51.450;-0.240;2022-08-27T08:24:30;19.70;99.90
22838;DHT22;11585;51.450;-0.240;2022-08-27T08:26:59;19.80;99.90
22838;DHT22;11585;51.450;-0.240;2022-08-27T08:29:25;19.90;99.90
22838;DHT22;11585;51.450;-0.240;2022-08-27T08:31:53;19.90;99.90
22838;DHT22;11585;51.450;-0.240;2022-08-27T08:34:19;19.90;99.90
22838;DHT22;11585;51.450;-0.240;2022-08-27T08:36:45;19.90;99.90
22838;DHT22;11585;51.450;-0.240;2022-08-27T08:39:11;20.00;99.90
22838;DHT22;11585;51.450;-0.240;2022-08-27T08:41:42;20.00;99.90
22838;DHT22;11585;51.450;-0.240;2022-08-27T08:47:29;20.10;99.90
22838;DHT22;11585;51.450;-0.240;2022-08-27T08:50:15;20.20;99.90
22838;DHT22;11585;51.450;-0.240;2022-08-27T08:52:53;20.20;99.90
22838;DHT22;11585;51.450;-0.240;2022-08-27T09:00:43;20.30;99.90
22838;DHT22;11585;51.450;-0.240;2022-08-27T09:03:11;20.40;99.90
22838;DHT22;11585;51.450;-0.240;2022-08-27T09:05:39;20.40;99.90
22838;DHT22;11585;51.450;-0.240;2022-08-27T09:08:35;20.40;99.90
22838;DHT22;11585;51.450;-0.240;2022-08-27T09:14:08;20.50;99.90
22838;DHT22;11585;51.450;-0.240;2022-08-27T09:16:38;20.60;99.90
22838;DHT22;11585;51.450;-0.240;2022-08-27T09:19:05;20.60;99.90
22838;DHT22;11585;51.450;-0.240;2022-08-27T09:24:42;20.70;99.90
22838;DHT22;11585;51.450;-0.240;2022-08-27T09:27:34;20.80;99.90
22838;DHT22;11585;51.450;-0.240;2022-08-27T09:30:06;20.80;99.90
22838;DHT22;11585;51.450;-0.240;2022-08-27T09:32:43;20.80;99.90
22838;DHT22;11585;51.450;-0.240;2022-08-27T09:39:07;20.90;99.90
22838;DHT22;11585;51.450;-0.240;2022-08-27T09:41:42;20.90;99.90
22838;DHT22;11585;51.450;-0.240;2022-08-27T09:44:12;21.00;99.90
22838;DHT22;11585;51.450;-0.240;2022-08-27T09:46:38;21.00;99.90
22838;DHT22;11585;51.450;-0.240;2022-08-27T09:49:14;21.10;99.90
22838;DHT22;11585;51.450;-0.240;2022-08-27T09:51:43;21.10;99.90
22838;DHT22;11585;51.450;-0.240;2022-08-27T09:54:25;21.20;99.90
22838;DHT22;11585;51.450;-0.240;2022-08-27T09:56:51;21.20;99.90
22838;DHT22;11585;51.450;-0.240;2022-08-27T09:59:23;21.20;99.90
22838;DHT22;11585;51.450;-0.240;2022-08-27T10:02:03;21.30;99.90
22838;DHT22;11585;51.450;-0.240;2022-08-27T10:04:44;21.30;99.90
22838;DHT22;11585;51.450;-0.240;2022-08-27T10:07:45;21.40;99.90
22838;DHT22;11585;51.450;-0.240;2022-08-27T10:10:25;21.40;99.90
22838;DHT22;11585;51.450;-0.240;2022-08-27T10:12:58;21.40;99.90
22838;DHT22;11585;51.450;-0.240;2022-08-27T10:15:38;21.50;99.90
22838;DHT22;11585;51.450;-0.240;2022-08-27T10:21:10;21.50;99.90
22838;DHT22;11585;51.450;-0.240;2022-08-27T10:23:47;21.60;99.90
22838;DHT22;11585;51.450;-0.240;2022-08-27T10:26:25;21.60;99.90
22838;DHT22;11585;51.450;-0.240;2022-08-27T10:37:08;21.70;99.90
22838;DHT22;11585;51.450;-0.240;2022-08-27T10:39:53;21.80;99.90
22838;DHT22;11585;51.450;-0.240;2022-08-27T10:42:28;21.80;99.90
22838;DHT22;11585;51.450;-0.240;2022-08-27T10:45:17;21.80;99.90
22838;DHT22;11585;51.450;-0.240;2022-08-27T10:50:41;21.90;99.90
22838;DHT22;11585;51.450;-0.240;2022-08-27T10:53:14;21.90;99.90
22838;DHT22;11585;51.450;-0.240;2022-08-27T11:01:47;22.00;99.90
22838;DHT22;11585;51.450;-0.240;2022-08-27T11:04:20;22.10;99.90
22838;DHT22;11585;51.450;-0.240;2022-08-27T11:06:55;22.10;99.90
22838;DHT22;11585;51.450;-0.240;2022-08-27T11:09:47;22.10;99.90
22838;DHT22;11585;51.450;-0.240;2022-08-27T11:12:20;22.20;99.90
22838;DHT22;11585;51.450;-0.240;2022-08-27T11:15:00;22.20;99.90
22838;DHT22;11585;51.450;-0.240;2022-08-27T11:17:41;22.20;99.90
22838;DHT22;11585;51.450;-0.240;2022-08-27T11:28:45;22.30;99.90
22838;DHT22;11585;51.450;-0.240;2022-08-27T11:31:15;22.30;99.90
22838;DHT22;11585;51.450;-0.240;2022-08-27T11:36:43;22.30;99.90
22838;DHT22;11585;51.450;-0.240;2022-08-27T11:42:38;22.40;99.90
22838;DHT22;11585;51.450;-0.240;2022-08-27T11:45:33;22.40;99.90
22838;DHT22;11585;51.450;-0.240;2022-08-27T11:48:24;22.40;99.90
22838;DHT22;11585;51.450;-0.240;2022-08-27T11:51:02;22.50;99.90
22838;DHT22;11585;51.450;-0.240;2022-08-27T11:53:32;22.50;99.90
22838;DHT22;11585;51.450;-0.240;2022-08-27T11:56:13;22.50;99.90
22838;DHT22;11585;51.450;-0.240;2022-08-27T11:58:41;22.60;99.90
22838;DHT22;11585;51.450;-0.240;2022-08-27T12:01:16;22.60;99.90
22838;DHT22;11585;51.450;-0.240;2022-08-27T12:04:21;22.60;99.90
22838;DHT22;11585;51.450;-0.240;2022-08-27T12:06:59;22.70;99.90
22838;DHT22;11585;51.450;-0.240;2022-08-27T12:09:26;22.70;99.90
22838;DHT22;11585;51.450;-0.240;2022-08-27T12:12:02;22.70;99.90
22838;DHT22;11585;51.450;-0.240;2022-08-27T12:14:45;22.70;99.90
22838;DHT22;11585;51.450;-0.240;2022-08-27T12:23:31;22.80;99.90
22838;DHT22;11585;51.450;-0.240;2022-08-27T12:31:48;23.00;99.90
22838;DHT22;11585;51.450;-0.240;2022-08-27T12:34:18;23.00;99.90
22838;DHT22;11585;51.450;-0.240;2022-08-27T12:36:47;23.10;99.90
22838;DHT22;11585;51.450;-0.240;2022-08-27T12:39:18;23.10;99.90
22838;DHT22;11585;51.450;-0.240;2022-08-27T12:41:49;23.10;99.90
22838;DHT22;11585;51.450;-0.240;2022-08-27T12:44:36;23.10;99.90
22838;DHT22;11585;51.450;-0.240;2022-08-27T12:47:07;23.20;99.90
22838;DHT22;11585;51.450;-0.240;2022-08-27T12:49:45;23.20;99.90
22838;DHT22;11585;51.450;-0.240;2022-08-27T12:58:04;23.30;99.90
22838;DHT22;11585;51.450;-0.240;2022-08-27T13:03:39;23.30;99.90
22838;DHT22;11585;51.450;-0.240;2022-08-27T13:06:34;23.30;99.90
22838;DHT22;11585;51.450;-0.240;2022-08-27T13:09:05;23.40;99.90
22838;DHT22;11585;51.450;-0.240;2022-08-27T13:11:43;23.40;99.90
22838;DHT22;11585;51.450;-0.240;2022-08-27T13:14:18;23.40;99.90
22838;DHT22;11585;51.450;-0.240;2022-08-27T13:16:51;23.40;99.90
22838;DHT22;11585;51.450;-0.240;2022-08-27T13:19:24;23.40;99.90
22838;DHT22;11585;51.450;-0.240;2022-08-27T13:21:52;23.40;99.90
22838;DHT22;11585;51.450;-0.240;2022-08-27T13:24:34;23.50;99.90
22838;DHT22;11585;51.450;-0.240;2022-08-27T13:27:04;23.50;99.90
22838;DHT22;11585;51.450;-0.240;2022-08-27T13:29:31;23.50;99.90
22838;DHT22;11585;51.450;-0.240;2022-08-27T13:31:57;23.50;99.90
22838;DHT22;11585;51.450;-0.240;2022-08-27T13:34:26;23.60;99.90
22838;DHT22;11585;51.450;-0.240;2022-08-27T13:37:06;23.60;99.90
22838;DHT22;11585;51.450;-0.240;2022-08-27T13:39:35;23.60;99.90
22838;DHT22;11585;51.450;-0.240;2022-08-27T13:42:03;23.60;99.90
22838;DHT22;11585;51.450;-0.240;2022-08-27T13:44:35;23.60;99.90
22838;DHT22;11585;51.450;-0.240;2022-08-27T13:47:07;23.60;99.90
22838;DHT22;11585;51.450;-0.240;2022-08-27T13:49:35;23.60;99.90
22838;DHT22;11585;51.450;-0.240;2022-08-27T13:54:31;23.70;99.90
22838;DHT22;11585;51.450;-0.240;2022-08-27T13:57:05;23.70;99.90
22838;DHT22;11585;51.450;-0.240;2022-08-27T13:59:35;23.70;99.90
22838;DHT22;11585;51.450;-0.240;2022-08-27T14:04:43;23.70;99.90
22838;DHT22;11585;51.450;-0.240;2022-08-27T14:07:29;23.70;99.90
22838;DHT22;11585;51.450;-0.240;2022-08-27T14:10:01;23.70;99.90
22838;DHT22;11585;51.450;-0.240;2022-08-27T14:12:36;23.70;99.90
22838;DHT22;11585;51.450;-0.240;2022-08-27T14:18:05;23.80;99.90
22838;DHT22;11585;51.450;-0.240;2022-08-27T14:20:32;23.70;99.90
22838;DHT22;11585;51.450;-0.240;2022-08-27T14:22:58;23.80;99.90
22838;DHT22;11585;51.450;-0.240;2022-08-27T14:25:25;23.80;99.90
22838;DHT22;11585;51.450;-0.240;2022-08-27T14:27:52;23.80;99.90
22838;DHT22;11585;51.450;-0.240;2022-08-27T14:30:21;23.80;99.90
22838;DHT22;11585;51.450;-0.240;2022-08-27T14:32:48;23.80;99.90
22838;DHT22;11585;51.450;-0.240;2022-08-27T14:35:15;23.80;99.90
22838;DHT22;11585;51.450;-0.240;2022-08-27T14:37:42;23.80;99.90
22838;DHT22;11585;51.450;-0.240;2022-08-27T14:40:10;23.80;99.90
22838;DHT22;11585;51.450;-0.240;2022-08-27T14:42:36;23.90;99.90
22838;DHT22;11585;51.450;-0.240;2022-08-27T14:45:04;23.90;99.90
22838;DHT22;11585;51.450;-0.240;2022-08-27T14:47:30;23.90;99.90
22838;DHT22;11585;51.450;-0.240;2022-08-27T14:49:56;23.90;99.90
22838;DHT22;11585;51.450;-0.240;2022-08-27T14:52:22;23.90;99.90
22838;DHT22;11585;51.450;-0.240;2022-08-27T14:54:48;24.00;99.90
22838;DHT22;11585;51.450;-0.240;2022-08-27T14:57:13;24.00;99.90
22838;DHT22;11585;51.450;-0.240;2022-08-27T14:59:39;24.00;99.90
22838;DHT22;11585;51.450;-0.240;2022-08-27T15:02:09;24.00;99.90
22838;DHT22;11585;51.450;-0.240;2022-08-27T15:04:38;24.00;99.90
22838;DHT22;11585;51.450;-0.240;2022-08-27T15:07:04;24.00;99.90
22838;DHT22;11585;51.450;-0.240;2022-08-27T15:09:30;24.00;99.90
22838;DHT22;11585;51.450;-0.240;2022-08-27T15:11:56;24.00;99.90
22838;DHT22;11585;51.450;-0.240;2022-08-27T15:14:30;24.00;99.90
22838;DHT22;11585;51.450;-0.240;2022-08-27T15:16:56;24.00;99.90
22838;DHT22;11585;51.450;-0.240;2022-08-27T15:19:23;24.00;99.90
22838;DHT22;11585;51.450;-0.240;2022-08-27T15:21:50;24.10;99.90
22838;DHT22;11585;51.450;-0.240;2022-08-27T15:24:22;24.10;99.90
22838;DHT22;11585;51.450;-0.240;2022-08-27T15:26:53;24.10;99.90
22838;DHT22;11585;51.450;-0.240;2022-08-27T15:29:19;24.10;99.90
22838;DHT22;11585;51.450;-0.240;2022-08-27T15:31:45;24.10;99.90
22838;DHT22;11585;51.450;-0.240;2022-08-27T15:34:11;24.20;99.90
22838;DHT22;11585;51.450;-0.240;2022-08-27T15:36:37;24.10;99.90
22838;DHT22;11585;51.450;-0.240;2022-08-27T15:39:03;24.20;99.90
22838;DHT22;11585;51.450;-0.240;2022-08-27T15:41:29;24.20;99.90
22838;DHT22;11585;51.450;-0.240;2022-08-27T15:43:58;24.20;99.90
22838;DHT22;11585;51.450;-0.240;2022-08-27T15:46:24;24.20;99.90
22838;DHT22;11585;51.450;-0.240;2022-08-27T15:48:50;24.20;99.90
22838;DHT22;11585;51.450;-0.240;2022-08-27T15:51:17;24.20;99.90
22838;DHT22;11585;51.450;-0.240;2022-08-27T15:53:46;24.20;99.90
22838;DHT22;11585;51.450;-0.240;2022-08-27T15:56:11;24.20;99.90
22838;DHT22;11585;51.450;-0.240;2022-08-27T15:58:37;24.20;99.90
22838;DHT22;11585;51.450;-0.240;2022-08-27T16:01:08;24.20;99.90
22838;DHT22;11585;51.450;-0.240;2022-08-27T16:03:36;24.30;99.90
22838;DHT22;11585;51.450;-0.240;2022-08-27T16:06:03;24.30;99.90
22838;DHT22;11585;51.450;-0.240;2022-08-27T16:08:29;24.20;99.90
22838;DHT22;11585;51.450;-0.240;2022-08-27T16:10:55;24.30;99.90
22838;DHT22;11585;51.450;-0.240;2022-08-27T16:13:21;24.20;99.90
22838;DHT22;11585;51.450;-0.240;2022-08-27T16:15:50;24.30;99.90
22838;DHT22;11585;51.450;-0.240;2022-08-27T16:18:19;24.30;99.90
22838;DHT22;11585;51.450;-0.240;2022-08-27T16:20:46;24.30;99.90
22838;DHT22;11585;51.450;-0.240;2022-08-27T16:23:12;24.30;99.90
22838;DHT22;11585;51.450;-0.240;2022-08-27T16:25:38;24.30;99.90
22838;DHT22;11585;51.450;-0.240;2022-08-27T16:28:04;24.30;99.90
22838;DHT22;11585;51.450;-0.240;2022-08-27T16:30:30;24.30;99.90
22838;DHT22;11585;51.450;-0.240;2022-08-27T16:32:56;24.30;99.90
22838;DHT22;11585;51.450;-0.240;2022-08-27T16:35:24;24.30;99.90
22838;DHT22;11585;51.450;-0.240;2022-08-27T16:37:50;24.30;99.90
22838;DHT22;11585;51.450;-0.240;2022-08-27T16:40:16;24.30;99.90
22838;DHT22;11585;51.450;-0.240;2022-08-27T16:42:48;24.30;99.90
22838;DHT22;11585;51.450;-0.240;2022-08-27T16:45:16;24.30;99.90
22838;DHT22;11585;51.450;-0.240;2022-08-27T16:47:43;24.30;99.90
22838;DHT22;11585;51.450;-0.240;2022-08-27T16:50:27;24.30;99.90
22838;DHT22;11585;51.450;-0.240;2022-08-27T16:55:32;24.30;99.90
22838;DHT22;11585;51.450;-0.240;2022-08-27T16:57:58;24.30;99.90
22838;DHT22;11585;51.450;-0.240;2022-08-27T17:00:24;24.30;99.90
22838;DHT22;11585;51.450;-0.240;2022-08-27T17:02:50;24.30;99.90
22838;DHT22;11585;51.450;-0.240;2022-08-27T17:05:16;24.30;99.90
22838;DHT22;11585;51.450;-0.240;2022-08-27T17:07:42;24.30;99.90
22838;DHT22;11585;51.450;-0.240;2022-08-27T17:10:08;24.30;99.90
22838;DHT22;11585;51.450;-0.240;2022-08-27T17:12:36;24.30;99.90
22838;DHT22;11585;51.450;-0.240;2022-08-27T17:15:01;24.30;99.90
22838;DHT22;11585;51.450;-0.240;2022-08-27T17:17:27;24.30;99.90
22838;DHT22;11585;51.450;-0.240;2022-08-27T17:19:54;24.30;99.90
22838;DHT22;11585;51.450;-0.240;2022-08-27T17:22:20;24.30;99.90
22838;DHT22;11585;51.450;-0.240;2022-08-27T17:24:46;24.30;99.90